• Join FlightAware (Why Join?)
  • Login
  • US Flag 
06:40AM EDT


 

Airport Tracker/Info


-or-


 

Live Flight TrackerFlight Track Log ✈ CTL312 ✈ 25-Apr-2013 ✈ KBKL - KPTK

Flight Track Log - Related Links

Times and Time Zones

All times are in EDT time to prevent confusion due to time zone crossing. See the CTL312 flight status page for this flight to view local times or setup timezone preferences in your user account.

Time Position Orientation Groundspeed Altitude Reporting Facility
EDT Latitude Longitude Course Direction KTS MPH feet Rate Location/Type
09:42PM 41.5147 -81.7006 338° Northwest 129 148 1,100  Level Cleveland Center
09:43PM 41.5417 -81.7150 338° Northwest 139 160 2,000 780 Climbing Cleveland Center
09:44PM 41.5725 -81.7517 318° Northwest 141 162 2,700 660 Climbing Cleveland Center
09:45PM 41.5889 -81.7908 299° West 144 166 3,300 660 Climbing Cleveland Center
09:46PM 41.6028 -81.8439 289° West 142 163 4,000 600 Climbing Cleveland Center
09:47PM 41.6189 -81.8942 293° West 147 169 4,600 600 Climbing Cleveland Center
09:48PM 41.6311 -81.9333 293° West 144 166 5,100 600 Climbing Cleveland Center
09:49PM 41.6492 -81.9808 297° West 146 168 5,700 540 Climbing Cleveland Center
09:50PM 41.6653 -82.0342 292° West 153 176 6,200 180 Climbing Cleveland Center
09:51PM 41.6831 -82.0983 290° West 163 188 6,100 -60 Descending Cleveland Center
09:52PM 41.6969 -82.1544 288° West 156 180 6,100  Level Cleveland Center
09:53PM 41.7128 -82.2047 293° West 158 182 6,100 -60 Level Cleveland Center
09:54PM 41.7350 -82.2667 296° West 156 180 6,000 -60 Descending Cleveland Center
09:56PM 41.7589 -82.3422 293° West 156 180 6,000  Level Cleveland Center
09:57PM 41.7767 -82.3931 295° West 156 180 6,000  Level Cleveland Center
09:58PM 41.7989 -82.4519 297° West 156 180 6,000  Level Cleveland Center
09:59PM 41.8167 -82.5111 292° West 156 180 6,000  Level Cleveland Center
10:00PM 41.8281 -82.5644 286° West 155 178 6,000  Level Cleveland Center
10:01PM 41.8397 -82.6122 288° West 156 180 6,000 -60 Level Cleveland Center
10:02PM 41.8703 -82.6606 310° West 161 185 5,900  Descending Cleveland Center
10:03PM 41.9072 -82.6925 327° Northwest 157 181 6,000  Climbing Cleveland Center
10:04PM 41.9439 -82.7300 323° Northwest 158 182 6,000  Level Cleveland Center
10:05PM 41.9808 -82.7619 327° Northwest 160 184 6,000 -60 Level Cleveland Center
10:06PM 42.0117 -82.7881 328° Northwest 162 186 5,900 -60 Descending Cleveland Center
10:07PM 42.0528 -82.8231 328° Northwest 159 183 5,900  Level Cleveland Center
10:08PM 42.0875 -82.8606 321° Northwest 159 183 6,000 -120 Climbing Cleveland Center
10:09PM 42.1264 -82.8928 328° Northwest 167 192 5,700 -420 Descending Cleveland Center
10:10PM 42.1611 -82.9250 325° Northwest 169 194 5,300 -540 Descending Cleveland Center
10:11PM 42.2206 -82.9747 328° Northwest 173 199 4,500 -540 Descending Cleveland Center
10:12PM 42.2514 -83.0042 325° Northwest 170 196 4,100 -660 Descending Cleveland Center
10:13PM 42.2964 -83.0394 330° Northwest 170 196 3,300 -600 Descending Cleveland Center
10:14PM 42.3208 -83.0600 328° Northwest 169 194 3,100 -180 Descending Cleveland Center
10:15PM 42.3678 -83.1069 324° Northwest 153 176 3,000 -60 Descending Cleveland Center
10:16PM 42.4025 -83.1392 326° Northwest 152 175 3,000  Level Cleveland Center
10:17PM 42.4372 -83.1744 323° Northwest 152 175 3,000  Level Cleveland Center
10:18PM 42.4697 -83.2094 322° Northwest 152 175 3,000  Level Cleveland Center
10:19PM 42.4964 -83.2303 330° Northwest 153 176 3,000 -180 Level Cleveland Center
10:20PM 42.5375 -83.2575 334° Northwest 161 185 2,700 -300 Descending Cleveland Center
10:21PM 42.5764 -83.2900 328° Northwest 159 183 2,400 -300 Descending Cleveland Center
10:22PM 42.6108 -83.3253 323° Northwest 146 168 2,100 -300 Descending Cleveland Center
10:23PM 42.6453 -83.3664 319° Northwest 134 154 1,800 -300 Descending Cleveland Center
10:25PM 42.6500 -83.4167 304° West  Level FlightAware Approximate
10:32PM 42.6656 -83.4205 304° West  Level Estimated
10:33PM 42.6656 -83.4205 304° West  Level Estimated